CheckWX is a tool to help pilots better visualize weather data.  It is not intended as a substitute for an official pre-flight weather briefing.

10:54:06 UTC

EDQM METAR
Hof-Plauen Airport
Hof, Germany
Current

34 mins ago

EDQM 261020Z 26009KT 9999 BKN028 03/M00 Q1026
Observed
Mar-26 @ 10:20 UTC
Wind
  • 260° at 9 KTS
Visibility
10,000+ meters
Flight Rules
MVFR
Cloud Levels
  • Broken at 2,800' AGL
Temperature
C / 37°F
Dewpoint
C / 32°F
Humidity
81%
Altimeter
30.3" Hg
Pressure
1025.92 hPa
Previous

1 hour ago

EDQM 260950Z 28009KT 250V320 9999 SCT022 BKN030 03/M00 Q1026
Observed
Mar-26 @ 09:50 UTC
Wind
  • 280° at 9 KTS
Visibility
10,000+ meters
Flight Rules
MVFR
Cloud Levels
  • Scattered at 2,200' AGL
  • Broken at 3,000' AGL
Temperature
C / 37°F
Dewpoint
C / 32°F
Humidity
81%
Altimeter
30.3" Hg
Pressure
1025.92 hPa
Previous

2 hours ago

EDQM 260920Z 28008KT 9999 BKN024 03/M00 Q1026
Observed
Mar-26 @ 09:20 UTC
Wind
  • 280° at 8 KTS
Visibility
10,000+ meters
Flight Rules
MVFR
Cloud Levels
  • Broken at 2,400' AGL
Temperature
C / 37°F
Dewpoint
C / 32°F
Humidity
81%
Altimeter
30.3" Hg
Pressure
1025.92 hPa